createdAt,value
2023-05-21T00:00:55.477Z,11.13
2023-05-21T00:03:27.013Z,11.18
2023-05-21T00:05:56.946Z,11.75
2023-05-21T00:08:26.142Z,11.32
2023-05-21T00:10:56.988Z,10.95
2023-05-21T00:13:25.276Z,11.63
2023-05-21T00:15:53.475Z,11.48
2023-05-21T00:18:22.216Z,11.98
2023-05-21T00:20:50.353Z,12.10
2023-05-21T00:23:21.488Z,12.05
2023-05-21T00:25:50.500Z,11.18
2023-05-21T00:28:18.832Z,11.65
2023-05-21T00:30:47.314Z,10.43
2023-05-21T00:33:15.763Z,11.35
2023-05-21T00:35:44.114Z,11.88
2023-05-21T00:38:12.464Z,10.98
2023-05-21T00:40:44.721Z,11.57
2023-05-21T00:43:14.400Z,11.75
2023-05-21T00:45:44.670Z,11.27
2023-05-21T00:48:14.759Z,12.07
2023-05-21T00:50:44.945Z,12.80
2023-05-21T00:53:15.303Z,12.43
2023-05-21T00:55:45.327Z,13.10
2023-05-21T00:58:14.275Z,11.52
2023-05-21T01:00:42.696Z,12.40
2023-05-21T01:03:11.538Z,12.48
2023-05-21T01:05:40.203Z,12.20
2023-05-21T01:08:10.389Z,12.30
2023-05-21T01:10:38.662Z,11.95
2023-05-21T01:13:08.488Z,11.77
2023-05-21T01:15:38.312Z,12.38
2023-05-21T01:18:07.735Z,12.15
2023-05-21T01:20:36.250Z,12.85
2023-05-21T01:23:07.144Z,12.68
2023-05-21T01:25:36.896Z,12.40
2023-05-21T01:28:05.687Z,11.60
2023-05-21T01:30:33.972Z,12.13
2023-05-21T01:33:04.845Z,12.65
2023-05-21T01:35:37.417Z,11.90
2023-05-21T01:38:17.274Z,11.07
2023-05-21T01:40:52.238Z,12.27
2023-05-21T01:43:21.744Z,12.18
2023-05-21T01:45:53.645Z,12.25
2023-05-21T01:48:22.214Z,11.63
2023-05-21T01:50:52.964Z,11.70
2023-05-21T01:53:23.015Z,12.85
2023-05-21T01:55:51.397Z,13.05
2023-05-21T01:58:24.578Z,12.88
2023-05-21T02:00:52.737Z,13.05
2023-05-21T02:03:23.080Z,13.80
2023-05-21T02:05:52.283Z,13.13
2023-05-21T02:08:23.416Z,12.32
2023-05-21T02:10:51.986Z,13.02
2023-05-21T02:13:21.537Z,12.55
2023-05-21T02:15:51.730Z,12.48
2023-05-21T02:18:21.359Z,12.60
2023-05-21T02:20:49.660Z,13.52
2023-05-21T02:23:18.188Z,12.90
2023-05-21T02:25:47.698Z,13.38
2023-05-21T02:28:16.049Z,14.35
2023-05-21T02:30:44.271Z,14.43
2023-05-21T02:33:14.299Z,13.73
2023-05-21T02:35:43.900Z,14.85
2023-05-21T02:38:13.629Z,14.70
2023-05-21T02:40:41.954Z,13.73
2023-05-21T02:43:12.661Z,15.00
2023-05-21T02:45:41.857Z,15.18
2023-05-21T02:48:10.127Z,15.50
2023-05-21T02:50:41.664Z,15.23
2023-05-21T02:53:10.085Z,13.75
2023-05-21T02:55:38.503Z,15.45
2023-05-21T02:58:06.980Z,14.25
2023-05-21T03:00:36.574Z,14.65
2023-05-21T03:03:05.301Z,15.10
2023-05-21T03:05:33.632Z,16.13
2023-05-21T03:08:01.803Z,15.60
2023-05-21T03:10:30.494Z,15.02
2023-05-21T03:12:58.789Z,16.42
2023-05-21T03:15:33.277Z,16.67
2023-05-21T03:18:03.007Z,15.63
2023-05-21T03:20:32.080Z,15.93
2023-05-21T03:23:00.490Z,16.80
2023-05-21T03:25:28.718Z,15.10
2023-05-21T03:27:57.113Z,15.70
2023-05-21T03:30:52.254Z,15.05
2023-05-21T03:33:44.845Z,16.38
2023-05-21T03:36:32.810Z,14.88
2023-05-21T03:39:01.012Z,16.23
2023-05-21T03:41:29.350Z,16.17
2023-05-21T03:44:05.723Z,15.75
2023-05-21T03:46:46.209Z,15.57
2023-05-21T03:49:34.028Z,16.35
2023-05-21T03:52:02.218Z,15.80
2023-05-21T03:54:30.566Z,16.33
2023-05-21T03:57:03.713Z,15.95
2023-05-21T03:59:31.988Z,16.45
2023-05-21T04:02:00.905Z,15.52
2023-05-21T04:04:30.559Z,15.38
2023-05-21T04:07:01.025Z,16.15
2023-05-21T04:09:29.321Z,14.35
2023-05-21T04:11:57.844Z,14.77
2023-05-21T04:14:26.414Z,13.10
2023-05-21T04:16:54.804Z,14.13
2023-05-21T04:19:23.125Z,15.13
2023-05-21T04:21:51.840Z,14.73
2023-05-21T04:24:22.663Z,15.18
2023-05-21T04:27:01.629Z,15.52
2023-05-21T04:29:32.442Z,14.98
2023-05-21T04:32:00.759Z,15.77
2023-05-21T04:34:29.690Z,15.82
2023-05-21T04:36:57.871Z,14.05
2023-05-21T04:39:28.505Z,15.63
2023-05-21T04:41:56.966Z,14.55
2023-05-21T04:44:26.657Z,17.17
2023-05-21T04:46:55.310Z,16.30
2023-05-21T04:49:26.018Z,16.02
2023-05-21T04:51:54.179Z,15.43
2023-05-21T04:54:23.585Z,15.20
2023-05-21T04:56:53.204Z,14.88
2023-05-21T04:59:21.650Z,15.43
2023-05-21T05:01:49.940Z,15.90
2023-05-21T05:04:18.087Z,15.88
2023-05-21T05:06:46.271Z,15.43
2023-05-21T05:09:14.531Z,14.43
2023-05-21T05:11:43.021Z,15.85
2023-05-21T05:14:12.642Z,16.92
2023-05-21T05:16:40.980Z,16.30
2023-05-21T05:19:09.338Z,16.15
2023-05-21T05:21:37.871Z,16.00
2023-05-21T05:24:06.884Z,16.63
2023-05-21T05:26:35.151Z,16.40
2023-05-21T05:29:03.355Z,17.23
2023-05-21T05:31:33.088Z,15.85
2023-05-21T05:34:01.456Z,15.15
2023-05-21T05:36:31.607Z,14.48
2023-05-21T05:39:00.228Z,16.00
2023-05-21T05:41:29.012Z,15.38
2023-05-21T05:43:57.772Z,15.90
2023-05-21T05:46:30.715Z,16.50
2023-05-21T05:49:00.577Z,16.65
2023-05-21T05:51:30.126Z,15.77
2023-05-21T05:53:58.269Z,16.67
2023-05-21T05:56:26.886Z,16.40
2023-05-21T05:58:55.008Z,17.20
2023-05-21T06:01:24.703Z,16.50
2023-05-21T06:03:53.187Z,16.92
2023-05-21T06:06:22.886Z,16.73
2023-05-21T06:08:51.359Z,17.52
2023-05-21T06:11:22.710Z,17.15
2023-05-21T06:13:51.007Z,16.60
2023-05-21T06:16:19.957Z,15.55
2023-05-21T06:18:48.420Z,16.15
2023-05-21T06:21:16.674Z,16.48
2023-05-21T06:23:47.603Z,16.20
2023-05-21T06:26:19.028Z,16.33
2023-05-21T06:28:49.164Z,16.00
2023-05-21T06:31:17.500Z,16.38
2023-05-21T06:33:46.185Z,14.45
2023-05-21T06:36:14.725Z,15.18
2023-05-21T06:38:43.030Z,14.70
2023-05-21T06:41:12.694Z,13.75
2023-05-21T06:43:49.872Z,14.85
2023-05-21T06:46:36.616Z,14.50
2023-05-21T06:49:08.528Z,15.23
2023-05-21T06:51:36.781Z,14.73
2023-05-21T06:54:05.857Z,14.05
2023-05-21T06:56:37.647Z,15.20
2023-05-21T06:59:05.866Z,15.70
2023-05-21T07:01:34.465Z,14.23
2023-05-21T07:04:03.256Z,14.40
2023-05-21T07:06:33.127Z,14.27
2023-05-21T07:09:01.350Z,15.27
2023-05-21T07:11:31.416Z,12.95
2023-05-21T07:14:04.081Z,14.35
2023-05-21T07:16:34.717Z,13.43
2023-05-21T07:19:03.865Z,14.02
2023-05-21T07:21:34.623Z,13.25
2023-05-21T07:24:03.570Z,13.88
2023-05-21T07:26:31.799Z,13.45
2023-05-21T07:29:01.455Z,13.00
2023-05-21T07:31:29.829Z,12.07
2023-05-21T07:33:58.371Z,12.40
2023-05-21T07:36:31.125Z,12.68
2023-05-21T07:39:00.262Z,11.57
2023-05-21T07:41:29.325Z,13.07
2023-05-21T07:44:02.449Z,11.07
2023-05-21T07:46:33.002Z,11.38
2023-05-21T07:49:01.333Z,11.20
2023-05-21T07:51:29.844Z,11.15
2023-05-21T07:53:59.208Z,11.13
2023-05-21T07:56:34.684Z,11.13
2023-05-21T07:59:04.729Z,10.07
2023-05-21T08:01:33.112Z,10.63
2023-05-21T08:04:05.739Z,11.05
2023-05-21T08:06:37.540Z,10.40
2023-05-21T08:09:06.396Z,10.13
2023-05-21T08:11:34.814Z,9.75
2023-05-21T08:14:04.631Z,10.43
2023-05-21T08:16:33.021Z,10.10
2023-05-21T08:19:01.217Z,10.00
2023-05-21T08:21:29.575Z,10.05
2023-05-21T08:24:00.234Z,9.80
2023-05-21T08:26:28.900Z,9.30
2023-05-21T08:28:58.003Z,8.88
2023-05-21T08:31:30.393Z,9.38
2023-05-21T08:33:58.579Z,8.90
2023-05-21T08:36:43.040Z,8.98
2023-05-21T08:39:24.629Z,9.38
2023-05-21T08:42:03.339Z,9.30
2023-05-21T08:44:34.431Z,8.43
2023-05-21T08:47:08.778Z,9.07
2023-05-21T08:49:37.615Z,8.85
2023-05-21T08:52:07.413Z,8.25
2023-05-21T08:54:36.873Z,8.57
2023-05-21T08:57:06.198Z,8.77
2023-05-21T08:59:36.919Z,9.20
2023-05-21T09:02:12.566Z,9.15
2023-05-21T09:04:42.443Z,8.20
2023-05-21T09:07:11.713Z,8.18
2023-05-21T09:09:59.523Z,8.38
2023-05-21T09:12:29.441Z,8.70
2023-05-21T09:15:01.681Z,8.80
2023-05-21T09:17:35.795Z,8.52
2023-05-21T09:20:25.232Z,8.68
2023-05-21T09:22:57.409Z,9.05
2023-05-21T09:25:28.216Z,8.50
2023-05-21T09:27:58.840Z,8.27
2023-05-21T09:30:30.549Z,8.55
2023-05-21T09:33:01.587Z,8.77
2023-05-21T09:35:30.233Z,8.07
2023-05-21T09:37:58.639Z,8.00
2023-05-21T09:40:27.209Z,8.32
2023-05-21T09:42:56.971Z,8.07
2023-05-21T09:45:27.598Z,8.25
2023-05-21T09:47:58.468Z,7.78
2023-05-21T09:50:28.758Z,7.80
2023-05-21T09:52:58.017Z,7.78
2023-05-21T09:55:27.662Z,7.13
2023-05-21T09:57:56.128Z,7.43
2023-05-21T10:00:27.438Z,7.90
2023-05-21T10:02:57.168Z,7.60
2023-05-21T10:05:29.246Z,7.28
2023-05-21T10:08:01.863Z,7.95
2023-05-21T10:10:31.988Z,7.70
2023-05-21T10:13:02.429Z,7.20
2023-05-21T10:15:36.149Z,7.00
2023-05-21T10:18:06.236Z,6.72
2023-05-21T10:20:36.791Z,7.03
2023-05-21T10:23:05.973Z,6.95
2023-05-21T10:25:34.664Z,7.15
2023-05-21T10:28:03.191Z,7.72
2023-05-21T10:30:32.134Z,7.15
2023-05-21T10:33:02.743Z,7.95
2023-05-21T10:35:32.319Z,7.05
2023-05-21T10:38:03.788Z,7.10
2023-05-21T10:40:32.275Z,7.70
2023-05-21T10:43:27.284Z,6.88
2023-05-21T10:46:17.389Z,7.00
2023-05-21T10:48:59.951Z,6.82
2023-05-21T10:51:30.540Z,6.68
2023-05-21T10:54:39.428Z,6.85
2023-05-21T10:57:17.759Z,6.85
2023-05-21T10:59:48.059Z,6.93
2023-05-21T11:02:17.370Z,6.60
2023-05-21T11:04:48.959Z,7.03
2023-05-21T11:07:24.741Z,7.03
2023-05-21T11:09:56.312Z,7.22
2023-05-21T11:12:24.447Z,6.90
2023-05-21T11:14:58.109Z,6.63
2023-05-21T11:17:40.582Z,7.38
2023-05-21T11:20:11.852Z,6.28
2023-05-21T11:22:40.210Z,7.07
2023-05-21T11:25:12.529Z,6.65
2023-05-21T11:27:42.301Z,7.18
2023-05-21T11:30:15.544Z,6.57
2023-05-21T11:33:19.293Z,6.57
2023-05-21T11:35:59.477Z,6.28
2023-05-21T11:38:30.183Z,5.93
2023-05-21T11:41:04.189Z,6.20
2023-05-21T11:43:32.313Z,5.70
2023-05-21T11:46:00.882Z,5.90
2023-05-21T11:48:30.606Z,6.38
2023-05-21T11:51:02.229Z,6.20
2023-05-21T11:53:31.260Z,5.72
2023-05-21T11:56:03.650Z,5.80
2023-05-21T11:58:32.956Z,5.47
2023-05-21T12:01:01.248Z,5.53
2023-05-21T12:03:30.616Z,5.18
2023-05-21T12:06:06.688Z,6.03
2023-05-21T12:08:35.857Z,5.70
2023-05-21T12:11:05.604Z,5.13
2023-05-21T12:13:33.831Z,5.68
2023-05-21T12:16:05.863Z,5.05
2023-05-21T12:18:34.943Z,5.22
2023-05-21T12:21:03.182Z,5.50
2023-05-21T12:23:31.566Z,5.68
2023-05-21T12:25:59.883Z,4.75
2023-05-21T12:28:30.025Z,5.22
2023-05-21T12:30:58.254Z,5.75
2023-05-21T12:33:29.162Z,5.35
2023-05-21T12:35:57.471Z,5.50
2023-05-21T12:38:31.020Z,5.38
2023-05-21T12:41:05.167Z,5.80
2023-05-21T12:43:35.121Z,5.22
2023-05-21T12:46:03.428Z,5.35
2023-05-21T12:48:31.676Z,5.72
2023-05-21T12:51:00.531Z,5.43
2023-05-21T12:53:38.631Z,5.40
2023-05-21T12:56:11.250Z,5.90
2023-05-21T12:58:41.516Z,5.00
2023-05-21T13:01:09.930Z,4.85
2023-05-21T13:03:39.430Z,5.68
2023-05-21T13:06:08.956Z,5.25
2023-05-21T13:08:37.332Z,5.85
2023-05-21T13:11:05.818Z,5.22
2023-05-21T13:13:34.057Z,5.38
2023-05-21T13:16:03.735Z,5.68
2023-05-21T13:18:31.918Z,6.07
2023-05-21T13:21:00.321Z,5.75
2023-05-21T13:23:28.646Z,5.40
2023-05-21T13:25:56.762Z,5.82
2023-05-21T13:28:25.479Z,5.05
2023-05-21T13:30:54.983Z,5.40
2023-05-21T13:33:24.645Z,5.65
2023-05-21T13:35:52.954Z,5.13
2023-05-21T13:38:21.429Z,5.65
2023-05-21T13:40:49.794Z,5.68
2023-05-21T13:43:17.996Z,5.40
2023-05-21T13:45:46.968Z,5.28
2023-05-21T13:48:16.292Z,5.18
2023-05-21T13:50:46.136Z,5.50
2023-05-21T13:53:14.315Z,5.25
2023-05-21T13:55:42.689Z,5.47
2023-05-21T13:58:11.137Z,5.70
2023-05-21T14:00:41.088Z,5.43
2023-05-21T14:03:10.743Z,4.85
2023-05-21T14:05:39.111Z,5.18
2023-05-21T14:08:08.783Z,5.90
2023-05-21T14:10:39.009Z,5.45
2023-05-21T14:13:18.390Z,5.95
2023-05-21T14:15:48.460Z,5.85
2023-05-21T14:18:16.618Z,5.13
2023-05-21T14:20:44.844Z,5.50
2023-05-21T14:23:14.479Z,5.45
2023-05-21T14:25:43.191Z,5.85
2023-05-21T14:28:11.403Z,5.75
2023-05-21T14:30:39.629Z,5.60
2023-05-21T14:33:08.078Z,5.63
2023-05-21T14:35:36.433Z,5.32
2023-05-21T14:38:04.777Z,5.68
2023-05-21T14:40:35.150Z,5.57
2023-05-21T14:43:03.921Z,5.80
2023-05-21T14:45:35.285Z,5.38
2023-05-21T14:48:08.269Z,5.15
2023-05-21T14:50:36.764Z,5.70
2023-05-21T14:53:06.406Z,5.38
2023-05-21T14:55:37.331Z,5.65
2023-05-21T14:58:06.319Z,5.32
2023-05-21T15:00:35.714Z,5.10
2023-05-21T15:03:05.004Z,4.57
2023-05-21T15:05:33.764Z,4.90
2023-05-21T15:08:03.913Z,5.40
2023-05-21T15:10:32.167Z,4.90
2023-05-21T15:13:01.896Z,5.18
2023-05-21T15:15:30.210Z,4.93
2023-05-21T15:17:58.641Z,5.20
2023-05-21T15:20:26.922Z,5.25
2023-05-21T15:23:08.485Z,5.03
2023-05-21T15:25:43.148Z,4.50
2023-05-21T15:28:13.076Z,4.70
2023-05-21T15:30:41.398Z,5.30
2023-05-21T15:33:09.586Z,4.43
2023-05-21T15:35:38.398Z,5.03
2023-05-21T15:38:06.974Z,5.07
2023-05-21T15:40:35.218Z,4.70
2023-05-21T15:43:03.448Z,4.75
2023-05-21T15:45:33.162Z,4.40
2023-05-21T15:48:01.330Z,4.93
2023-05-21T15:50:29.639Z,4.70
2023-05-21T15:52:57.865Z,4.63
2023-05-21T15:55:26.159Z,4.55
2023-05-21T15:57:54.285Z,4.40
2023-05-21T16:00:22.563Z,5.00
2023-05-21T16:02:52.334Z,4.47
2023-05-21T16:05:20.573Z,4.05
2023-05-21T16:07:49.165Z,4.60
2023-05-21T16:10:17.554Z,4.15
2023-05-21T16:12:45.801Z,4.20
2023-05-21T16:15:14.090Z,4.50
2023-05-21T16:17:42.631Z,4.60
2023-05-21T16:20:13.683Z,4.25
2023-05-21T16:22:41.926Z,4.28
2023-05-21T16:25:10.709Z,4.57
2023-05-21T16:27:38.852Z,4.25
2023-05-21T16:30:08.819Z,4.40
2023-05-21T16:32:37.033Z,4.45
2023-05-21T16:35:06.224Z,4.60
2023-05-21T16:37:35.814Z,4.38
2023-05-21T16:40:04.606Z,4.60
2023-05-21T16:42:33.112Z,4.13
2023-05-21T16:45:01.256Z,4.78
2023-05-21T16:47:29.473Z,4.40
2023-05-21T16:49:58.517Z,3.95
2023-05-21T16:52:27.022Z,4.53
2023-05-21T16:54:56.625Z,3.92
2023-05-21T16:57:24.807Z,4.10
2023-05-21T16:59:52.981Z,4.10
2023-05-21T17:02:21.369Z,4.10
2023-05-21T17:04:49.966Z,4.38
2023-05-21T17:07:18.370Z,4.20
2023-05-21T17:09:46.784Z,3.83
2023-05-21T17:12:16.413Z,4.22
2023-05-21T17:14:44.715Z,3.90
2023-05-21T17:17:12.922Z,3.95
2023-05-21T17:19:42.581Z,4.28
2023-05-21T17:22:12.188Z,3.85
2023-05-21T17:24:40.372Z,4.43
2023-05-21T17:27:08.650Z,3.97
2023-05-21T17:29:38.336Z,4.35
2023-05-21T17:32:07.572Z,5.35
2023-05-21T17:34:35.980Z,3.80
2023-05-21T17:37:05.322Z,4.05
2023-05-21T17:39:33.513Z,4.15
2023-05-21T17:42:02.071Z,4.18
2023-05-21T17:44:30.250Z,3.80
2023-05-21T17:46:59.911Z,4.30
2023-05-21T17:49:28.190Z,4.22
2023-05-21T17:51:56.581Z,4.05
2023-05-21T17:54:24.765Z,4.10
2023-05-21T17:56:53.111Z,4.25
2023-05-21T17:59:22.339Z,3.80
2023-05-21T18:01:50.792Z,4.50
2023-05-21T18:04:20.785Z,3.58
2023-05-21T18:06:49.118Z,3.97
2023-05-21T18:09:17.283Z,3.30
2023-05-21T18:11:45.607Z,4.07
2023-05-21T18:14:14.134Z,4.07
2023-05-21T18:16:42.912Z,3.72
2023-05-21T18:19:11.474Z,4.35
2023-05-21T18:21:41.314Z,3.97
2023-05-21T18:24:10.002Z,3.70
2023-05-21T18:26:38.771Z,5.35
2023-05-21T18:29:07.032Z,5.40
2023-05-21T18:31:35.617Z,5.10
2023-05-21T18:34:04.827Z,4.50
2023-05-21T18:36:38.693Z,4.35
2023-05-21T18:39:10.227Z,4.47
2023-05-21T18:41:39.568Z,4.15
2023-05-21T18:44:07.749Z,3.72
2023-05-21T18:46:36.340Z,3.90
2023-05-21T18:49:04.574Z,3.80
2023-05-21T18:51:32.985Z,3.80
2023-05-21T18:54:01.230Z,3.88
2023-05-21T18:56:30.944Z,3.65
2023-05-21T18:58:59.157Z,3.55
2023-05-21T19:01:27.802Z,3.92
2023-05-21T19:03:56.047Z,3.92
2023-05-21T19:06:25.509Z,3.90
2023-05-21T19:08:54.084Z,3.88
2023-05-21T19:11:23.681Z,3.92
2023-05-21T19:13:53.416Z,4.50
2023-05-21T19:16:22.170Z,4.15
2023-05-21T19:18:50.561Z,3.53
2023-05-21T19:21:18.939Z,3.95
2023-05-21T19:23:53.427Z,3.97
2023-05-21T19:26:22.471Z,4.10
2023-05-21T19:28:53.404Z,4.43
2023-05-21T19:31:25.241Z,4.00
2023-05-21T19:33:54.007Z,4.25
2023-05-21T19:36:22.851Z,3.78
2023-05-21T19:38:51.597Z,4.00
2023-05-21T19:41:21.502Z,4.18
2023-05-21T19:43:49.769Z,3.80
2023-05-21T19:46:20.446Z,4.43
2023-05-21T19:48:51.692Z,4.15
2023-05-21T19:51:20.433Z,4.20
2023-05-21T19:53:48.817Z,4.00
2023-05-21T19:56:17.436Z,4.13
2023-05-21T19:58:47.930Z,3.95
2023-05-21T20:01:17.371Z,4.10
2023-05-21T20:03:46.103Z,3.78
2023-05-21T20:06:19.110Z,4.07
2023-05-21T20:08:49.064Z,4.07
2023-05-21T20:11:17.463Z,4.28
2023-05-21T20:13:50.110Z,4.18
2023-05-21T20:16:20.130Z,4.03
2023-05-21T20:18:49.062Z,4.35
2023-05-21T20:21:20.121Z,4.32
2023-05-21T20:23:48.719Z,4.13
2023-05-21T20:26:18.856Z,4.20
2023-05-21T20:28:47.106Z,4.40
2023-05-21T20:31:15.582Z,4.10
2023-05-21T20:33:43.935Z,4.55
2023-05-21T20:36:13.343Z,4.25
2023-05-21T20:38:43.511Z,4.22
2023-05-21T20:41:11.809Z,4.13
2023-05-21T20:43:40.549Z,4.40
2023-05-21T20:46:08.743Z,4.25
2023-05-21T20:48:37.991Z,4.18
2023-05-21T20:51:06.877Z,4.40
2023-05-21T20:53:35.319Z,4.35
2023-05-21T20:56:08.202Z,4.45
2023-05-21T20:58:36.504Z,4.07
2023-05-21T21:01:04.651Z,4.43
2023-05-21T21:03:34.191Z,4.68
2023-05-21T21:06:03.108Z,4.70
2023-05-21T21:08:31.403Z,4.00
2023-05-21T21:10:59.588Z,4.20
2023-05-21T21:13:29.069Z,4.35
2023-05-21T21:15:57.447Z,4.65
2023-05-21T21:18:25.701Z,4.40
2023-05-21T21:20:54.078Z,4.03
2023-05-21T21:23:22.354Z,3.95
2023-05-21T21:25:50.605Z,4.00
2023-05-21T21:28:18.772Z,4.50
2023-05-21T21:30:48.351Z,4.57
2023-05-21T21:33:16.872Z,4.10
2023-05-21T21:35:45.139Z,4.00
2023-05-21T21:38:13.645Z,4.70
2023-05-21T21:40:42.268Z,4.40
2023-05-21T21:43:10.447Z,4.45
2023-05-21T21:45:38.681Z,4.40
2023-05-21T21:48:08.813Z,4.63
2023-05-21T21:50:37.266Z,4.35
2023-05-21T21:53:05.944Z,4.80
2023-05-21T21:55:34.492Z,4.53
2023-05-21T21:58:02.802Z,4.30
2023-05-21T22:00:31.212Z,4.00
2023-05-21T22:02:59.659Z,4.45
2023-05-21T22:05:30.746Z,4.22
2023-05-21T22:07:58.966Z,4.03
2023-05-21T22:10:27.262Z,4.20
2023-05-21T22:12:55.611Z,4.20
2023-05-21T22:15:25.340Z,4.32
2023-05-21T22:17:54.199Z,4.55
2023-05-21T22:20:23.080Z,4.13
2023-05-21T22:22:54.804Z,4.57
2023-05-21T22:25:23.507Z,3.90
2023-05-21T22:27:51.786Z,3.70
2023-05-21T22:30:20.643Z,4.30
2023-05-21T22:32:49.321Z,3.88
2023-05-21T22:35:17.698Z,3.85
2023-05-21T22:37:46.637Z,3.83
2023-05-21T22:40:16.347Z,3.40
2023-05-21T22:42:46.943Z,3.88
2023-05-21T22:45:15.449Z,3.58
2023-05-21T22:47:44.020Z,3.53
2023-05-21T22:50:12.840Z,3.60
2023-05-21T22:52:41.924Z,3.72
2023-05-21T22:55:11.549Z,3.35
2023-05-21T22:57:41.149Z,3.78
2023-05-21T23:00:10.872Z,3.55
2023-05-21T23:02:39.450Z,3.85
2023-05-21T23:05:08.163Z,3.45
2023-05-21T23:07:36.392Z,3.85
2023-05-21T23:10:04.866Z,3.60
2023-05-21T23:12:33.080Z,3.40
2023-05-21T23:15:05.329Z,3.60
2023-05-21T23:17:33.472Z,3.92
2023-05-21T23:20:01.658Z,3.40
2023-05-21T23:22:30.628Z,3.45
2023-05-21T23:24:58.842Z,3.75
2023-05-21T23:27:27.106Z,3.70
2023-05-21T23:29:55.678Z,3.28
2023-05-21T23:32:25.810Z,3.67
2023-05-21T23:34:54.056Z,3.05
2023-05-21T23:37:22.519Z,3.20
2023-05-21T23:39:51.480Z,3.42
2023-05-21T23:42:19.831Z,2.95
2023-05-21T23:44:47.919Z,3.30
2023-05-21T23:47:16.086Z,3.25
2023-05-21T23:49:45.643Z,3.50
2023-05-21T23:52:17.261Z,3.17
2023-05-21T23:54:46.021Z,3.10
2023-05-21T23:57:14.577Z,3.35
2023-05-21T23:59:42.952Z,3.55
